Terminal Aerodrome Forecast
Issued by NWS

Home | Current Version | Previous Version | Text Only | Print | Product List | Glossary On
Versions: 1 2 3 4 5 6 7 8 9 10 11 12 13 14 15 16 17 18 19 20 21 22
000
FTUS42 KFFC 301951 AAA
TAFRYY
TAF AMD
KRYY 301951Z 3020/3118 33005KT P6SM VCSH BKN050
      TEMPO 3020/3023 VRB10G20KT 6SM -TSRA BKN040CB
     FM310000 34004KT P6SM SCT060 SCT250
     FM311400 03004KT P6SM FEW050=

USA.gov is the U.S. government's official web portal to all federal, state and local government web resources and services.